sensor_id;sensor_type;location;lat;lon;timestamp;P1;durP1;ratioP1;P2;durP2;ratioP2
4794;SDS011;2411;47.060;15.064;2022-07-15T00:00:01;2.73;;;1.90;;
4794;SDS011;2411;47.060;15.064;2022-07-15T00:02:29;2.53;;;2.43;;
4794;SDS011;2411;47.060;15.064;2022-07-15T00:04:56;3.07;;;2.20;;
4794;SDS011;2411;47.060;15.064;2022-07-15T00:07:23;3.07;;;2.07;;
4794;SDS011;2411;47.060;15.064;2022-07-15T00:09:50;2.43;;;2.23;;
4794;SDS011;2411;47.060;15.064;2022-07-15T00:12:36;3.10;;;1.90;;
4794;SDS011;2411;47.060;15.064;2022-07-15T00:15:03;1.60;;;1.60;;
4794;SDS011;2411;47.060;15.064;2022-07-15T00:17:30;2.20;;;2.10;;
4794;SDS011;2411;47.060;15.064;2022-07-15T00:19:57;2.80;;;2.60;;
4794;SDS011;2411;47.060;15.064;2022-07-15T00:22:24;2.53;;;2.30;;
4794;SDS011;2411;47.060;15.064;2022-07-15T00:24:51;2.87;;;2.67;;
4794;SDS011;2411;47.060;15.064;2022-07-15T00:27:18;1.80;;;1.70;;
4794;SDS011;2411;47.060;15.064;2022-07-15T00:29:45;2.33;;;2.13;;
4794;SDS011;2411;47.060;15.064;2022-07-15T00:32:12;4.23;;;2.33;;
4794;SDS011;2411;47.060;15.064;2022-07-15T00:34:40;2.20;;;2.00;;
4794;SDS011;2411;47.060;15.064;2022-07-15T00:37:07;5.60;;;2.40;;
4794;SDS011;2411;47.060;15.064;2022-07-15T00:39:34;2.40;;;2.30;;
4794;SDS011;2411;47.060;15.064;2022-07-15T00:42:01;2.93;;;1.83;;
4794;SDS011;2411;47.060;15.064;2022-07-15T00:44:28;2.70;;;2.27;;
4794;SDS011;2411;47.060;15.064;2022-07-15T00:46:55;2.17;;;2.07;;
4794;SDS011;2411;47.060;15.064;2022-07-15T00:49:22;2.00;;;1.90;;
4794;SDS011;2411;47.060;15.064;2022-07-15T00:51:50;3.10;;;2.40;;
4794;SDS011;2411;47.060;15.064;2022-07-15T00:54:23;1.90;;;1.80;;
4794;SDS011;2411;47.060;15.064;2022-07-15T00:56:52;2.17;;;2.00;;
4794;SDS011;2411;47.060;15.064;2022-07-15T00:59:22;2.17;;;1.83;;
4794;SDS011;2411;47.060;15.064;2022-07-15T01:01:51;3.03;;;2.20;;
4794;SDS011;2411;47.060;15.064;2022-07-15T01:04:20;3.17;;;1.80;;
4794;SDS011;2411;47.060;15.064;2022-07-15T01:06:48;3.27;;;2.00;;
4794;SDS011;2411;47.060;15.064;2022-07-15T01:09:16;1.60;;;1.60;;
4794;SDS011;2411;47.060;15.064;2022-07-15T01:11:45;2.43;;;2.33;;
4794;SDS011;2411;47.060;15.064;2022-07-15T01:14:13;1.97;;;1.83;;
4794;SDS011;2411;47.060;15.064;2022-07-15T01:16:40;2.50;;;2.20;;
4794;SDS011;2411;47.060;15.064;2022-07-15T01:19:08;1.77;;;1.67;;
4794;SDS011;2411;47.060;15.064;2022-07-15T01:21:35;2.30;;;2.20;;
4794;SDS011;2411;47.060;15.064;2022-07-15T01:24:02;4.20;;;2.00;;
4794;SDS011;2411;47.060;15.064;2022-07-15T01:26:29;3.87;;;1.53;;
4794;SDS011;2411;47.060;15.064;2022-07-15T01:28:56;1.80;;;1.70;;
4794;SDS011;2411;47.060;15.064;2022-07-15T01:31:23;1.60;;;1.50;;
4794;SDS011;2411;47.060;15.064;2022-07-15T01:33:50;1.83;;;1.73;;
4794;SDS011;2411;47.060;15.064;2022-07-15T01:36:20;2.87;;;2.03;;
4794;SDS011;2411;47.060;15.064;2022-07-15T01:38:47;2.10;;;2.00;;
4794;SDS011;2411;47.060;15.064;2022-07-15T01:41:34;1.97;;;1.87;;
4794;SDS011;2411;47.060;15.064;2022-07-15T01:44:01;2.47;;;1.97;;
4794;SDS011;2411;47.060;15.064;2022-07-15T01:46:29;2.10;;;2.00;;
4794;SDS011;2411;47.060;15.064;2022-07-15T01:48:56;5.43;;;2.10;;
4794;SDS011;2411;47.060;15.064;2022-07-15T01:51:42;8.70;;;2.40;;
4794;SDS011;2411;47.060;15.064;2022-07-15T01:54:09;3.50;;;1.77;;
4794;SDS011;2411;47.060;15.064;2022-07-15T01:56:36;4.03;;;2.47;;
4794;SDS011;2411;47.060;15.064;2022-07-15T01:59:03;1.90;;;1.80;;
4794;SDS011;2411;47.060;15.064;2022-07-15T02:01:30;2.20;;;2.10;;
4794;SDS011;2411;47.060;15.064;2022-07-15T02:03:57;2.70;;;2.27;;
4794;SDS011;2411;47.060;15.064;2022-07-15T02:06:24;2.67;;;2.50;;
4794;SDS011;2411;47.060;15.064;2022-07-15T02:08:51;3.63;;;2.20;;
4794;SDS011;2411;47.060;15.064;2022-07-15T02:11:18;1.80;;;1.70;;
4794;SDS011;2411;47.060;15.064;2022-07-15T02:13:45;4.60;;;2.50;;
4794;SDS011;2411;47.060;15.064;2022-07-15T02:16:12;2.07;;;1.97;;
4794;SDS011;2411;47.060;15.064;2022-07-15T02:18:40;2.40;;;2.30;;
4794;SDS011;2411;47.060;15.064;2022-07-15T02:21:07;2.20;;;2.10;;
4794;SDS011;2411;47.060;15.064;2022-07-15T02:23:34;3.33;;;2.60;;
4794;SDS011;2411;47.060;15.064;2022-07-15T02:26:01;1.60;;;1.50;;
4794;SDS011;2411;47.060;15.064;2022-07-15T02:28:28;10.63;;;2.20;;
4794;SDS011;2411;47.060;15.064;2022-07-15T02:30:55;2.67;;;2.47;;
4794;SDS011;2411;47.060;15.064;2022-07-15T02:33:22;2.77;;;2.67;;
4794;SDS011;2411;47.060;15.064;2022-07-15T02:35:49;4.00;;;3.07;;
4794;SDS011;2411;47.060;15.064;2022-07-15T02:38:17;2.80;;;2.60;;
4794;SDS011;2411;47.060;15.064;2022-07-15T02:40:44;3.83;;;3.20;;
4794;SDS011;2411;47.060;15.064;2022-07-15T02:43:11;3.57;;;3.23;;
4794;SDS011;2411;47.060;15.064;2022-07-15T02:45:38;3.40;;;2.90;;
4794;SDS011;2411;47.060;15.064;2022-07-15T02:48:05;3.10;;;2.80;;
4794;SDS011;2411;47.060;15.064;2022-07-15T02:50:32;3.47;;;3.03;;
4794;SDS011;2411;47.060;15.064;2022-07-15T02:53:01;3.47;;;3.17;;
4794;SDS011;2411;47.060;15.064;2022-07-15T02:55:29;2.80;;;2.70;;
4794;SDS011;2411;47.060;15.064;2022-07-15T02:57:56;2.97;;;2.77;;
4794;SDS011;2411;47.060;15.064;2022-07-15T03:00:23;3.27;;;2.70;;
4794;SDS011;2411;47.060;15.064;2022-07-15T03:02:50;3.67;;;3.20;;
4794;SDS011;2411;47.060;15.064;2022-07-15T03:05:17;5.60;;;2.50;;
4794;SDS011;2411;47.060;15.064;2022-07-15T03:07:45;4.30;;;2.50;;
4794;SDS011;2411;47.060;15.064;2022-07-15T03:10:12;6.07;;;3.20;;
4794;SDS011;2411;47.060;15.064;2022-07-15T03:12:40;2.70;;;2.50;;
4794;SDS011;2411;47.060;15.064;2022-07-15T03:15:07;15.20;;;2.87;;
4794;SDS011;2411;47.060;15.064;2022-07-15T03:17:35;2.90;;;2.70;;
4794;SDS011;2411;47.060;15.064;2022-07-15T03:20:02;3.93;;;3.40;;
4794;SDS011;2411;47.060;15.064;2022-07-15T03:22:29;2.50;;;2.30;;
4794;SDS011;2411;47.060;15.064;2022-07-15T03:24:56;2.63;;;2.43;;
4794;SDS011;2411;47.060;15.064;2022-07-15T03:27:23;2.97;;;2.77;;
4794;SDS011;2411;47.060;15.064;2022-07-15T03:29:50;2.90;;;2.67;;
4794;SDS011;2411;47.060;15.064;2022-07-15T03:32:17;2.47;;;2.37;;
4794;SDS011;2411;47.060;15.064;2022-07-15T03:34:47;3.87;;;2.80;;
4794;SDS011;2411;47.060;15.064;2022-07-15T03:37:15;2.40;;;2.30;;
4794;SDS011;2411;47.060;15.064;2022-07-15T03:39:42;3.90;;;2.70;;
4794;SDS011;2411;47.060;15.064;2022-07-15T03:42:09;2.80;;;2.13;;
4794;SDS011;2411;47.060;15.064;2022-07-15T03:44:36;2.20;;;2.00;;
4794;SDS011;2411;47.060;15.064;2022-07-15T03:47:03;4.97;;;2.60;;
4794;SDS011;2411;47.060;15.064;2022-07-15T03:49:30;3.10;;;2.63;;
4794;SDS011;2411;47.060;15.064;2022-07-15T03:51:57;2.33;;;2.23;;
4794;SDS011;2411;47.060;15.064;2022-07-15T03:54:24;2.97;;;2.60;;
4794;SDS011;2411;47.060;15.064;2022-07-15T03:56:51;4.03;;;2.50;;
4794;SDS011;2411;47.060;15.064;2022-07-15T03:59:18;2.77;;;2.57;;
4794;SDS011;2411;47.060;15.064;2022-07-15T04:01:47;2.80;;;2.60;;
4794;SDS011;2411;47.060;15.064;2022-07-15T04:04:15;2.93;;;2.63;;
4794;SDS011;2411;47.060;15.064;2022-07-15T04:06:42;8.63;;;2.80;;
4794;SDS011;2411;47.060;15.064;2022-07-15T04:09:10;5.93;;;2.50;;
4794;SDS011;2411;47.060;15.064;2022-07-15T04:11:38;2.60;;;2.40;;
4794;SDS011;2411;47.060;15.064;2022-07-15T04:14:13;2.97;;;2.77;;
4794;SDS011;2411;47.060;15.064;2022-07-15T04:16:41;2.30;;;2.20;;
4794;SDS011;2411;47.060;15.064;2022-07-15T04:19:08;2.47;;;2.37;;
4794;SDS011;2411;47.060;15.064;2022-07-15T04:21:35;3.57;;;2.77;;
4794;SDS011;2411;47.060;15.064;2022-07-15T04:24:02;2.77;;;2.57;;
4794;SDS011;2411;47.060;15.064;2022-07-15T04:26:29;2.67;;;2.57;;
4794;SDS011;2411;47.060;15.064;2022-07-15T04:28:56;2.40;;;2.30;;
4794;SDS011;2411;47.060;15.064;2022-07-15T04:31:23;5.23;;;2.93;;
4794;SDS011;2411;47.060;15.064;2022-07-15T04:33:51;5.37;;;2.33;;
4794;SDS011;2411;47.060;15.064;2022-07-15T04:36:18;3.20;;;2.57;;
4794;SDS011;2411;47.060;15.064;2022-07-15T04:38:45;7.90;;;3.17;;
4794;SDS011;2411;47.060;15.064;2022-07-15T04:41:11;7.30;;;2.50;;
4794;SDS011;2411;47.060;15.064;2022-07-15T04:43:39;5.13;;;2.63;;
4794;SDS011;2411;47.060;15.064;2022-07-15T04:46:06;5.70;;;2.73;;
4794;SDS011;2411;47.060;15.064;2022-07-15T04:48:33;4.87;;;3.00;;
4794;SDS011;2411;47.060;15.064;2022-07-15T04:51:19;2.40;;;2.30;;
4794;SDS011;2411;47.060;15.064;2022-07-15T04:53:46;2.10;;;1.97;;
4794;SDS011;2411;47.060;15.064;2022-07-15T04:56:13;3.87;;;2.27;;
4794;SDS011;2411;47.060;15.064;2022-07-15T04:58:41;4.30;;;1.90;;
4794;SDS011;2411;47.060;15.064;2022-07-15T05:01:08;3.33;;;2.33;;
4794;SDS011;2411;47.060;15.064;2022-07-15T05:03:36;3.40;;;2.50;;
4794;SDS011;2411;47.060;15.064;2022-07-15T05:06:03;2.80;;;2.53;;
4794;SDS011;2411;47.060;15.064;2022-07-15T05:08:30;2.70;;;2.50;;
4794;SDS011;2411;47.060;15.064;2022-07-15T05:10:57;2.53;;;2.33;;
4794;SDS011;2411;47.060;15.064;2022-07-15T05:13:24;3.40;;;2.70;;
4794;SDS011;2411;47.060;15.064;2022-07-15T05:15:51;3.43;;;2.73;;
4794;SDS011;2411;47.060;15.064;2022-07-15T05:18:18;2.60;;;2.40;;
4794;SDS011;2411;47.060;15.064;2022-07-15T05:20:45;4.80;;;3.03;;
4794;SDS011;2411;47.060;15.064;2022-07-15T05:23:12;6.20;;;2.77;;
4794;SDS011;2411;47.060;15.064;2022-07-15T05:25:41;7.33;;;2.40;;
4794;SDS011;2411;47.060;15.064;2022-07-15T05:28:08;9.80;;;2.70;;
4794;SDS011;2411;47.060;15.064;2022-07-15T05:30:35;4.23;;;2.60;;
4794;SDS011;2411;47.060;15.064;2022-07-15T05:33:03;3.03;;;2.83;;
4794;SDS011;2411;47.060;15.064;2022-07-15T05:35:30;5.50;;;2.80;;
4794;SDS011;2411;47.060;15.064;2022-07-15T05:37:58;5.30;;;2.80;;
4794;SDS011;2411;47.060;15.064;2022-07-15T05:40:24;3.93;;;2.50;;
4794;SDS011;2411;47.060;15.064;2022-07-15T05:42:51;5.00;;;2.60;;
4794;SDS011;2411;47.060;15.064;2022-07-15T05:45:19;3.60;;;2.70;;
4794;SDS011;2411;47.060;15.064;2022-07-15T05:47:47;4.50;;;2.60;;
4794;SDS011;2411;47.060;15.064;2022-07-15T05:50:15;1.90;;;1.80;;
4794;SDS011;2411;47.060;15.064;2022-07-15T05:52:43;8.40;;;2.50;;
4794;SDS011;2411;47.060;15.064;2022-07-15T05:55:10;5.30;;;1.70;;
4794;SDS011;2411;47.060;15.064;2022-07-15T05:57:37;2.40;;;1.90;;
4794;SDS011;2411;47.060;15.064;2022-07-15T06:00:11;2.80;;;1.90;;
4794;SDS011;2411;47.060;15.064;2022-07-15T06:02:38;13.50;;;2.37;;
4794;SDS011;2411;47.060;15.064;2022-07-15T06:05:06;4.83;;;1.97;;
4794;SDS011;2411;47.060;15.064;2022-07-15T06:07:33;2.30;;;2.10;;
4794;SDS011;2411;47.060;15.064;2022-07-15T06:10:02;6.47;;;2.60;;
4794;SDS011;2411;47.060;15.064;2022-07-15T06:12:30;1.90;;;1.80;;
4794;SDS011;2411;47.060;15.064;2022-07-15T06:14:57;6.33;;;2.00;;
4794;SDS011;2411;47.060;15.064;2022-07-15T06:17:24;3.90;;;2.00;;
4794;SDS011;2411;47.060;15.064;2022-07-15T06:19:51;2.37;;;1.80;;
4794;SDS011;2411;47.060;15.064;2022-07-15T06:22:18;2.80;;;2.60;;
4794;SDS011;2411;47.060;15.064;2022-07-15T06:24:45;6.10;;;2.60;;
4794;SDS011;2411;47.060;15.064;2022-07-15T06:27:12;3.10;;;2.80;;
4794;SDS011;2411;47.060;15.064;2022-07-15T06:29:39;4.10;;;2.63;;
4794;SDS011;2411;47.060;15.064;2022-07-15T06:32:06;10.03;;;2.60;;
4794;SDS011;2411;47.060;15.064;2022-07-15T06:34:34;3.20;;;2.40;;
4794;SDS011;2411;47.060;15.064;2022-07-15T06:37:01;2.23;;;2.10;;
4794;SDS011;2411;47.060;15.064;2022-07-15T06:39:28;2.33;;;2.13;;
4794;SDS011;2411;47.060;15.064;2022-07-15T06:41:55;2.50;;;2.30;;
4794;SDS011;2411;47.060;15.064;2022-07-15T06:44:22;3.00;;;2.80;;
4794;SDS011;2411;47.060;15.064;2022-07-15T06:46:49;2.60;;;2.30;;
4794;SDS011;2411;47.060;15.064;2022-07-15T06:49:23;7.47;;;2.80;;
4794;SDS011;2411;47.060;15.064;2022-07-15T06:51:50;2.77;;;2.57;;
4794;SDS011;2411;47.060;15.064;2022-07-15T06:54:18;5.27;;;2.37;;
4794;SDS011;2411;47.060;15.064;2022-07-15T06:56:45;4.33;;;2.60;;
4794;SDS011;2411;47.060;15.064;2022-07-15T06:59:12;2.63;;;2.40;;
4794;SDS011;2411;47.060;15.064;2022-07-15T07:01:39;3.93;;;2.80;;
4794;SDS011;2411;47.060;15.064;2022-07-15T07:04:06;3.07;;;2.73;;
4794;SDS011;2411;47.060;15.064;2022-07-15T07:06:33;3.00;;;2.70;;
4794;SDS011;2411;47.060;15.064;2022-07-15T07:09:00;3.90;;;2.77;;
4794;SDS011;2411;47.060;15.064;2022-07-15T07:11:27;4.50;;;2.73;;
4794;SDS011;2411;47.060;15.064;2022-07-15T07:13:55;2.80;;;2.60;;
4794;SDS011;2411;47.060;15.064;2022-07-15T07:16:22;3.20;;;3.00;;
4794;SDS011;2411;47.060;15.064;2022-07-15T07:18:49;5.30;;;2.67;;
4794;SDS011;2411;47.060;15.064;2022-07-15T07:21:17;5.63;;;3.10;;
4794;SDS011;2411;47.060;15.064;2022-07-15T07:23:47;4.70;;;2.70;;
4794;SDS011;2411;47.060;15.064;2022-07-15T07:26:14;2.80;;;2.60;;
4794;SDS011;2411;47.060;15.064;2022-07-15T07:28:42;2.60;;;2.40;;
4794;SDS011;2411;47.060;15.064;2022-07-15T07:31:10;2.33;;;2.13;;
4794;SDS011;2411;47.060;15.064;2022-07-15T07:33:39;3.70;;;2.50;;
4794;SDS011;2411;47.060;15.064;2022-07-15T07:36:07;2.73;;;2.43;;
4794;SDS011;2411;47.060;15.064;2022-07-15T07:38:35;4.53;;;2.27;;
4794;SDS011;2411;47.060;15.064;2022-07-15T07:41:03;2.43;;;2.23;;
4794;SDS011;2411;47.060;15.064;2022-07-15T07:43:30;2.30;;;2.20;;
4794;SDS011;2411;47.060;15.064;2022-07-15T07:45:58;2.77;;;2.57;;
4794;SDS011;2411;47.060;15.064;2022-07-15T07:48:26;3.37;;;2.47;;
4794;SDS011;2411;47.060;15.064;2022-07-15T07:50:53;7.33;;;2.20;;
4794;SDS011;2411;47.060;15.064;2022-07-15T07:53:20;3.80;;;2.77;;
4794;SDS011;2411;47.060;15.064;2022-07-15T07:55:47;3.80;;;2.87;;
4794;SDS011;2411;47.060;15.064;2022-07-15T07:58:15;3.40;;;2.53;;
4794;SDS011;2411;47.060;15.064;2022-07-15T08:00:43;2.50;;;2.30;;
4794;SDS011;2411;47.060;15.064;2022-07-15T08:03:11;3.63;;;2.77;;
4794;SDS011;2411;47.060;15.064;2022-07-15T08:05:38;3.63;;;2.80;;
4794;SDS011;2411;47.060;15.064;2022-07-15T08:08:12;3.57;;;3.27;;
4794;SDS011;2411;47.060;15.064;2022-07-15T08:10:42;3.37;;;3.17;;
4794;SDS011;2411;47.060;15.064;2022-07-15T08:13:13;5.33;;;3.20;;
4794;SDS011;2411;47.060;15.064;2022-07-15T08:15:41;3.73;;;2.30;;
4794;SDS011;2411;47.060;15.064;2022-07-15T08:18:09;9.73;;;2.57;;
4794;SDS011;2411;47.060;15.064;2022-07-15T08:20:36;5.03;;;2.40;;
4794;SDS011;2411;47.060;15.064;2022-07-15T08:23:04;6.37;;;2.50;;
4794;SDS011;2411;47.060;15.064;2022-07-15T08:25:33;2.50;;;2.30;;
4794;SDS011;2411;47.060;15.064;2022-07-15T08:28:01;2.23;;;2.10;;
4794;SDS011;2411;47.060;15.064;2022-07-15T08:30:29;4.80;;;2.30;;
4794;SDS011;2411;47.060;15.064;2022-07-15T08:32:57;1.93;;;1.80;;
4794;SDS011;2411;47.060;15.064;2022-07-15T08:35:24;4.30;;;2.30;;
4794;SDS011;2411;47.060;15.064;2022-07-15T08:37:52;3.53;;;2.53;;
4794;SDS011;2411;47.060;15.064;2022-07-15T08:40:20;2.53;;;2.33;;
4794;SDS011;2411;47.060;15.064;2022-07-15T08:42:47;7.80;;;2.90;;
4794;SDS011;2411;47.060;15.064;2022-07-15T08:45:15;2.30;;;2.10;;
4794;SDS011;2411;47.060;15.064;2022-07-15T08:47:44;2.83;;;2.00;;
4794;SDS011;2411;47.060;15.064;2022-07-15T08:50:19;3.33;;;2.20;;
4794;SDS011;2411;47.060;15.064;2022-07-15T08:52:47;3.00;;;2.80;;
4794;SDS011;2411;47.060;15.064;2022-07-15T08:55:15;2.63;;;2.43;;
4794;SDS011;2411;47.060;15.064;2022-07-15T08:57:49;3.37;;;2.90;;
4794;SDS011;2411;47.060;15.064;2022-07-15T09:00:19;5.17;;;3.07;;
4794;SDS011;2411;47.060;15.064;2022-07-15T09:02:48;4.60;;;2.83;;
4794;SDS011;2411;47.060;15.064;2022-07-15T09:05:20;5.40;;;3.07;;
4794;SDS011;2411;47.060;15.064;2022-07-15T09:16:04;4.33;;;3.37;;
4794;SDS011;2411;47.060;15.064;2022-07-15T09:18:48;7.57;;;2.80;;
4794;SDS011;2411;47.060;15.064;2022-07-15T09:23:48;5.07;;;3.07;;
4794;SDS011;2411;47.060;15.064;2022-07-15T09:28:55;5.10;;;3.10;;
4794;SDS011;2411;47.060;15.064;2022-07-15T09:31:33;4.30;;;3.50;;
4794;SDS011;2411;47.060;15.064;2022-07-15T09:34:20;4.53;;;3.07;;
4794;SDS011;2411;47.060;15.064;2022-07-15T09:36:49;7.63;;;3.50;;
4794;SDS011;2411;47.060;15.064;2022-07-15T09:39:21;8.83;;;3.00;;
4794;SDS011;2411;47.060;15.064;2022-07-15T09:41:50;5.70;;;3.27;;
4794;SDS011;2411;47.060;15.064;2022-07-15T09:44:27;3.00;;;2.70;;
4794;SDS011;2411;47.060;15.064;2022-07-15T09:46:57;3.33;;;3.13;;
4794;SDS011;2411;47.060;15.064;2022-07-15T09:51:57;5.20;;;3.77;;
4794;SDS011;2411;47.060;15.064;2022-07-15T09:54:34;6.40;;;3.90;;
4794;SDS011;2411;47.060;15.064;2022-07-15T09:57:07;5.17;;;4.00;;
4794;SDS011;2411;47.060;15.064;2022-07-15T09:59:37;4.67;;;3.63;;
4794;SDS011;2411;47.060;15.064;2022-07-15T10:02:06;4.20;;;3.83;;
4794;SDS011;2411;47.060;15.064;2022-07-15T10:04:34;4.20;;;3.10;;
4794;SDS011;2411;47.060;15.064;2022-07-15T10:07:01;3.23;;;3.00;;
4794;SDS011;2411;47.060;15.064;2022-07-15T10:09:50;12.00;;;3.50;;
4794;SDS011;2411;47.060;15.064;2022-07-15T10:12:20;4.83;;;3.30;;
4794;SDS011;2411;47.060;15.064;2022-07-15T10:23:37;9.70;;;4.60;;
4794;SDS011;2411;47.060;15.064;2022-07-15T10:26:40;4.30;;;2.93;;
4794;SDS011;2411;47.060;15.064;2022-07-15T10:29:30;3.57;;;2.70;;
4794;SDS011;2411;47.060;15.064;2022-07-15T10:31:58;4.00;;;3.03;;
4794;SDS011;2411;47.060;15.064;2022-07-15T10:34:33;2.93;;;2.80;;
4794;SDS011;2411;47.060;15.064;2022-07-15T10:37:03;3.90;;;3.13;;
4794;SDS011;2411;47.060;15.064;2022-07-15T10:42:14;2.80;;;2.70;;
4794;SDS011;2411;47.060;15.064;2022-07-15T10:47:25;4.43;;;3.17;;
4794;SDS011;2411;47.060;15.064;2022-07-15T10:49:53;3.03;;;2.73;;
4794;SDS011;2411;47.060;15.064;2022-07-15T10:52:21;7.40;;;2.27;;
4794;SDS011;2411;47.060;15.064;2022-07-15T11:06:20;5.50;;;3.23;;
4794;SDS011;2411;47.060;15.064;2022-07-15T11:13:41;4.77;;;2.73;;
4794;SDS011;2411;47.060;15.064;2022-07-15T11:16:14;3.23;;;2.80;;
4794;SDS011;2411;47.060;15.064;2022-07-15T11:18:50;5.83;;;2.53;;
4794;SDS011;2411;47.060;15.064;2022-07-15T11:21:19;3.00;;;2.50;;
4794;SDS011;2411;47.060;15.064;2022-07-15T11:23:47;2.90;;;2.60;;
4794;SDS011;2411;47.060;15.064;2022-07-15T11:26:16;5.53;;;3.00;;
4794;SDS011;2411;47.060;15.064;2022-07-15T11:28:51;7.37;;;2.40;;
4794;SDS011;2411;47.060;15.064;2022-07-15T11:31:20;3.10;;;1.90;;
4794;SDS011;2411;47.060;15.064;2022-07-15T11:33:52;5.77;;;2.30;;
4794;SDS011;2411;47.060;15.064;2022-07-15T11:36:20;2.10;;;2.00;;
4794;SDS011;2411;47.060;15.064;2022-07-15T11:38:50;2.27;;;2.03;;
4794;SDS011;2411;47.060;15.064;2022-07-15T11:41:17;2.70;;;2.13;;
4794;SDS011;2411;47.060;15.064;2022-07-15T11:44:05;4.43;;;2.70;;
4794;SDS011;2411;47.060;15.064;2022-07-15T11:46:58;3.50;;;2.47;;
4794;SDS011;2411;47.060;15.064;2022-07-15T11:49:31;2.50;;;2.40;;
4794;SDS011;2411;47.060;15.064;2022-07-15T11:52:03;2.70;;;2.50;;
4794;SDS011;2411;47.060;15.064;2022-07-15T11:54:31;2.60;;;2.40;;
4794;SDS011;2411;47.060;15.064;2022-07-15T11:57:04;2.30;;;2.20;;
4794;SDS011;2411;47.060;15.064;2022-07-15T11:59:33;2.10;;;2.00;;
4794;SDS011;2411;47.060;15.064;2022-07-15T12:02:08;4.60;;;1.90;;
4794;SDS011;2411;47.060;15.064;2022-07-15T12:04:38;2.30;;;2.20;;
4794;SDS011;2411;47.060;15.064;2022-07-15T12:07:06;3.27;;;2.93;;
4794;SDS011;2411;47.060;15.064;2022-07-15T12:12:11;3.23;;;1.97;;
4794;SDS011;2411;47.060;15.064;2022-07-15T12:14:38;2.67;;;2.20;;
4794;SDS011;2411;47.060;15.064;2022-07-15T12:17:06;2.30;;;1.73;;
4794;SDS011;2411;47.060;15.064;2022-07-15T12:19:33;7.33;;;2.70;;
4794;SDS011;2411;47.060;15.064;2022-07-15T12:22:05;3.63;;;2.40;;
4794;SDS011;2411;47.060;15.064;2022-07-15T12:24:48;2.50;;;2.30;;
4794;SDS011;2411;47.060;15.064;2022-07-15T12:27:19;5.10;;;2.27;;
4794;SDS011;2411;47.060;15.064;2022-07-15T12:30:05;2.60;;;2.20;;
4794;SDS011;2411;47.060;15.064;2022-07-15T12:32:36;5.03;;;2.33;;
4794;SDS011;2411;47.060;15.064;2022-07-15T12:35:03;4.60;;;2.37;;
4794;SDS011;2411;47.060;15.064;2022-07-15T12:47:58;4.90;;;2.67;;
4794;SDS011;2411;47.060;15.064;2022-07-15T12:53:25;7.70;;;2.43;;
4794;SDS011;2411;47.060;15.064;2022-07-15T12:55:58;3.03;;;2.30;;
4794;SDS011;2411;47.060;15.064;2022-07-15T12:58:27;2.20;;;2.10;;
4794;SDS011;2411;47.060;15.064;2022-07-15T13:01:06;2.53;;;2.33;;
4794;SDS011;2411;47.060;15.064;2022-07-15T13:03:35;2.83;;;2.60;;
4794;SDS011;2411;47.060;15.064;2022-07-15T13:06:03;4.17;;;2.90;;
4794;SDS011;2411;47.060;15.064;2022-07-15T13:08:31;2.20;;;2.03;;
4794;SDS011;2411;47.060;15.064;2022-07-15T13:11:01;3.00;;;2.80;;
4794;SDS011;2411;47.060;15.064;2022-07-15T13:13:33;3.97;;;2.70;;
4794;SDS011;2411;47.060;15.064;2022-07-15T13:16:03;3.00;;;2.20;;
4794;SDS011;2411;47.060;15.064;2022-07-15T13:18:32;3.03;;;2.77;;
4794;SDS011;2411;47.060;15.064;2022-07-15T13:21:01;3.10;;;2.50;;
4794;SDS011;2411;47.060;15.064;2022-07-15T13:23:28;2.47;;;2.37;;
4794;SDS011;2411;47.060;15.064;2022-07-15T13:25:55;2.50;;;2.33;;
4794;SDS011;2411;47.060;15.064;2022-07-15T13:28:23;5.60;;;2.80;;
4794;SDS011;2411;47.060;15.064;2022-07-15T13:30:51;6.73;;;2.60;;
4794;SDS011;2411;47.060;15.064;2022-07-15T13:33:18;4.20;;;3.20;;
4794;SDS011;2411;47.060;15.064;2022-07-15T13:35:45;2.87;;;2.67;;
4794;SDS011;2411;47.060;15.064;2022-07-15T13:38:13;7.83;;;2.77;;
4794;SDS011;2411;47.060;15.064;2022-07-15T13:40:41;3.43;;;2.70;;
4794;SDS011;2411;47.060;15.064;2022-07-15T13:43:08;3.20;;;3.00;;
4794;SDS011;2411;47.060;15.064;2022-07-15T13:45:35;9.07;;;4.00;;
4794;SDS011;2411;47.060;15.064;2022-07-15T13:48:11;4.70;;;2.90;;
4794;SDS011;2411;47.060;15.064;2022-07-15T13:50:38;4.50;;;2.93;;
4794;SDS011;2411;47.060;15.064;2022-07-15T13:53:23;3.83;;;2.80;;
4794;SDS011;2411;47.060;15.064;2022-07-15T13:55:50;2.90;;;2.80;;
4794;SDS011;2411;47.060;15.064;2022-07-15T13:58:17;2.73;;;2.57;;
4794;SDS011;2411;47.060;15.064;2022-07-15T14:00:44;3.40;;;3.10;;
4794;SDS011;2411;47.060;15.064;2022-07-15T14:03:11;9.03;;;4.40;;
4794;SDS011;2411;47.060;15.064;2022-07-15T14:05:38;4.50;;;4.10;;
4794;SDS011;2411;47.060;15.064;2022-07-15T14:08:05;4.67;;;4.10;;
4794;SDS011;2411;47.060;15.064;2022-07-15T14:10:33;4.30;;;3.70;;
4794;SDS011;2411;47.060;15.064;2022-07-15T14:13:00;3.50;;;3.30;;
4794;SDS011;2411;47.060;15.064;2022-07-15T14:15:27;5.00;;;3.70;;
4794;SDS011;2411;47.060;15.064;2022-07-15T14:18:03;4.47;;;4.07;;
4794;SDS011;2411;47.060;15.064;2022-07-15T14:20:30;4.57;;;4.17;;
4794;SDS011;2411;47.060;15.064;2022-07-15T14:22:57;4.20;;;3.90;;
4794;SDS011;2411;47.060;15.064;2022-07-15T14:25:25;4.40;;;4.00;;
4794;SDS011;2411;47.060;15.064;2022-07-15T14:27:52;6.07;;;4.50;;
4794;SDS011;2411;47.060;15.064;2022-07-15T14:30:21;4.83;;;4.00;;
4794;SDS011;2411;47.060;15.064;2022-07-15T14:32:49;5.40;;;4.90;;
4794;SDS011;2411;47.060;15.064;2022-07-15T14:35:18;4.60;;;4.20;;
4794;SDS011;2411;47.060;15.064;2022-07-15T14:37:48;5.63;;;4.20;;
4794;SDS011;2411;47.060;15.064;2022-07-15T14:40:15;5.23;;;4.73;;
4794;SDS011;2411;47.060;15.064;2022-07-15T14:42:42;6.93;;;4.10;;
4794;SDS011;2411;47.060;15.064;2022-07-15T14:45:10;5.80;;;4.47;;
4794;SDS011;2411;47.060;15.064;2022-07-15T14:47:37;7.87;;;4.40;;
4794;SDS011;2411;47.060;15.064;2022-07-15T14:50:04;4.47;;;4.10;;
4794;SDS011;2411;47.060;15.064;2022-07-15T14:52:31;5.73;;;5.23;;
4794;SDS011;2411;47.060;15.064;2022-07-15T14:54:58;7.50;;;4.73;;
4794;SDS011;2411;47.060;15.064;2022-07-15T14:57:25;4.97;;;4.63;;
4794;SDS011;2411;47.060;15.064;2022-07-15T14:59:52;5.33;;;4.83;;
4794;SDS011;2411;47.060;15.064;2022-07-15T15:02:19;6.57;;;4.90;;
4794;SDS011;2411;47.060;15.064;2022-07-15T15:04:48;5.30;;;4.90;;
4794;SDS011;2411;47.060;15.064;2022-07-15T15:07:16;8.90;;;5.13;;
4794;SDS011;2411;47.060;15.064;2022-07-15T15:09:43;5.77;;;5.27;;
4794;SDS011;2411;47.060;15.064;2022-07-15T15:12:10;4.87;;;4.47;;
4794;SDS011;2411;47.060;15.064;2022-07-15T15:14:37;8.10;;;5.63;;
4794;SDS011;2411;47.060;15.064;2022-07-15T15:17:04;5.53;;;5.03;;
4794;SDS011;2411;47.060;15.064;2022-07-15T15:19:35;5.63;;;5.00;;
4794;SDS011;2411;47.060;15.064;2022-07-15T15:22:02;6.13;;;5.57;;
4794;SDS011;2411;47.060;15.064;2022-07-15T15:24:31;5.63;;;5.13;;
4794;SDS011;2411;47.060;15.064;2022-07-15T15:26:58;6.50;;;6.00;;
4794;SDS011;2411;47.060;15.064;2022-07-15T15:29:27;6.17;;;5.57;;
4794;SDS011;2411;47.060;15.064;2022-07-15T15:31:55;9.77;;;5.43;;
4794;SDS011;2411;47.060;15.064;2022-07-15T15:34:22;6.93;;;5.60;;
4794;SDS011;2411;47.060;15.064;2022-07-15T15:36:50;6.27;;;5.63;;
4794;SDS011;2411;47.060;15.064;2022-07-15T15:39:17;6.33;;;5.73;;
4794;SDS011;2411;47.060;15.064;2022-07-15T15:41:44;6.37;;;5.83;;
4794;SDS011;2411;47.060;15.064;2022-07-15T15:44:11;7.50;;;5.67;;
4794;SDS011;2411;47.060;15.064;2022-07-15T15:46:39;6.30;;;5.80;;
4794;SDS011;2411;47.060;15.064;2022-07-15T15:49:07;7.77;;;5.50;;
4794;SDS011;2411;47.060;15.064;2022-07-15T15:51:34;5.83;;;5.33;;
4794;SDS011;2411;47.060;15.064;2022-07-15T15:54:01;7.27;;;6.67;;
4794;SDS011;2411;47.060;15.064;2022-07-15T15:56:28;7.60;;;5.97;;
4794;SDS011;2411;47.060;15.064;2022-07-15T15:58:55;6.57;;;5.97;;
4794;SDS011;2411;47.060;15.064;2022-07-15T16:01:22;6.23;;;5.73;;
4794;SDS011;2411;47.060;15.064;2022-07-15T16:03:49;6.70;;;6.07;;
4794;SDS011;2411;47.060;15.064;2022-07-15T16:06:16;6.17;;;5.60;;
4794;SDS011;2411;47.060;15.064;2022-07-15T16:08:49;6.80;;;6.10;;
4794;SDS011;2411;47.060;15.064;2022-07-15T16:11:17;6.77;;;6.17;;